Time;durP1;ratioP1;P1;durP2;ratioP2;P2;SDS_P1;SDS_P2;PMS_P1;PMS_P2;Temp;Humidity;BMP_temperature;BMP_pressure;BME280_temperature;BME280_humidity;BME280_pressure;Samples;Min_cycle;Max_cycle;Signal;HPM_P1;HPM_P2
2022/08/14 00:00:27;;;;;;;3.88;3.55;;;25.90;64.70;;;;;;5046108;28;20017;-43
2022/08/14 00:02:53;;;;;;;8.10;3.67;;;25.90;64.90;;;;;;5045232;28;20048;-44
2022/08/14 00:05:20;;;;;;;3.83;3.38;;;25.90;65.00;;;;;;5045762;28;20032;-44
2022/08/14 00:07:47;;;;;;;4.03;3.72;;;25.90;65.20;;;;;;5045376;28;20094;-43
2022/08/14 00:10:16;;;;;;;4.82;4.10;;;25.80;65.40;;;;;;5045623;28;20380;-43
2022/08/14 00:12:50;;;;;;;3.70;3.40;;;25.70;65.60;;;;;;5046128;28;20119;-44
2022/08/14 00:15:28;;;;;;;3.80;3.50;;;25.70;65.80;;;;;;5046196;28;20577;-44
2022/08/14 00:17:53;;;;;;;3.90;3.50;;;25.70;65.80;;;;;;5045139;28;20013;-44
2022/08/14 00:20:22;;;;;;;4.05;3.67;;;25.60;65.90;;;;;;5046301;28;20082;-44
2022/08/14 00:22:48;;;;;;;3.67;3.38;;;25.60;66.30;;;;;;5045482;28;20025;-44
2022/08/14 00:25:13;;;;;;;3.92;3.63;;;25.60;66.40;;;;;;5044941;28;20075;-44
2022/08/14 00:27:39;;;;;;;3.65;3.35;;;25.50;66.40;;;;;;5045027;28;20409;-44
2022/08/14 00:30:07;;;;;;;3.85;3.55;;;25.50;66.50;;;;;;5045718;28;20033;-42
2022/08/14 00:32:33;;;;;;;4.28;3.88;;;25.50;66.70;;;;;;5044658;28;20462;-42
2022/08/14 00:35:00;;;;;;;3.80;3.50;;;25.40;66.70;;;;;;5045150;28;20067;-42
2022/08/14 00:37:27;;;;;;;3.55;3.25;;;25.40;66.90;;;;;;5044925;28;20025;-42
2022/08/14 00:39:53;;;;;;;4.93;3.90;;;25.30;66.90;;;;;;5044260;28;20024;-42
2022/08/14 00:42:23;;;;;;;4.45;4.05;;;25.30;67.10;;;;;;5045461;28;20021;-42
2022/08/14 00:44:48;;;;;;;4.05;3.75;;;25.30;67.20;;;;;;5044306;28;20116;-43
2022/08/14 00:47:16;;;;;;;4.72;3.65;;;25.30;67.40;;;;;;5045334;28;20116;-43
2022/08/14 00:49:42;;;;;;;4.28;3.88;;;25.20;67.70;;;;;;5044631;28;20028;-43
2022/08/14 00:52:08;;;;;;;4.03;3.72;;;25.20;67.70;;;;;;5044188;28;20343;-43
2022/08/14 00:54:37;;;;;;;3.63;3.35;;;25.20;67.90;;;;;;5044461;28;20523;-43
2022/08/14 00:57:03;;;;;;;4.00;3.70;;;25.10;67.90;;;;;;5044255;28;20079;-43
2022/08/14 00:59:30;;;;;;;4.30;4.00;;;25.10;68.10;;;;;;5043697;28;20484;-43
2022/08/14 01:01:59;;;;;;;5.00;4.00;;;25.00;68.40;;;;;;5045257;28;20101;-43
2022/08/14 01:04:27;;;;;;;4.28;3.88;;;25.00;68.80;;;;;;5043948;28;20397;-43
2022/08/14 01:06:53;;;;;;;5.45;4.10;;;25.00;68.80;;;;;;5044116;28;20032;-43
2022/08/14 01:09:21;;;;;;;4.13;3.78;;;25.00;68.90;;;;;;5045236;28;20025;-43
2022/08/14 01:11:49;;;;;;;4.32;3.92;;;24.90;69.00;;;;;;5044250;28;20024;-44
2022/08/14 01:14:16;;;;;;;4.13;3.80;;;24.90;69.20;;;;;;5044623;28;20056;-44
2022/08/14 01:16:41;;;;;;;3.97;3.67;;;24.80;69.10;;;;;;5044248;28;20035;-44
2022/08/14 01:21:51;;;;;;;3.85;3.55;;;24.80;69.50;;;;;;5033443;28;20071;-43
2022/08/14 01:24:17;;;;;;;3.75;3.45;;;24.70;69.50;;;;;;5045265;28;20033;-43
2022/08/14 01:26:45;;;;;;;4.32;3.92;;;24.70;70.00;;;;;;5044314;28;20132;-43
2022/08/14 01:29:11;;;;;;;4.50;4.10;;;24.60;69.90;;;;;;5043558;28;20494;-42
2022/08/14 01:32:00;;;;;;;4.60;4.20;;;24.60;70.00;;;;;;5044450;28;20480;-43
2022/08/14 01:34:25;;;;;;;4.20;3.80;;;24.60;70.30;;;;;;5043685;28;20033;-43
2022/08/14 01:36:52;;;;;;;3.50;3.20;;;24.60;70.20;;;;;;5044232;28;20033;-42
2022/08/14 01:39:19;;;;;;;3.83;3.53;;;24.60;70.30;;;;;;5045086;28;20769;-43
2022/08/14 01:41:55;;;;;;;4.30;4.00;;;24.50;70.50;;;;;;5042925;28;20060;-44
2022/08/14 01:44:25;;;;;;;4.07;3.65;;;24.40;70.60;;;;;;5044658;28;20127;-43
2022/08/14 01:46:53;;;;;;;4.40;4.00;;;24.40;70.60;;;;;;5044736;28;20029;-43
2022/08/14 01:49:20;;;;;;;4.43;4.00;;;24.40;70.90;;;;;;5044562;28;20063;-42
2022/08/14 01:51:47;;;;;;;4.43;4.07;;;24.40;70.90;;;;;;5043811;28;20381;-43
2022/08/14 01:54:20;;;;;;;4.65;4.05;;;24.30;71.00;;;;;;5044554;28;20455;-43
2022/08/14 01:56:47;;;;;;;5.05;4.28;;;24.30;71.20;;;;;;5043298;28;20021;-43
2022/08/14 01:59:33;;;;;;;4.40;4.00;;;24.30;71.10;;;;;;5044417;28;20028;-42
2022/08/14 02:02:11;;;;;;;4.40;4.00;;;24.30;71.10;;;;;;5044104;28;20021;-42
2022/08/14 02:04:37;;;;;;;3.88;3.53;;;24.20;71.30;;;;;;5023553;28;20562;-43
2022/08/14 02:07:05;;;;;;;4.50;4.10;;;24.20;71.30;;;;;;5039192;28;20527;-42
2022/08/14 02:09:34;;;;;;;4.88;4.38;;;24.20;71.60;;;;;;5046861;28;20413;-42
2022/08/14 02:12:01;;;;;;;4.88;4.47;;;24.20;71.60;;;;;;5047904;28;20433;-42
2022/08/14 02:14:27;;;;;;;4.18;3.78;;;24.10;71.60;;;;;;5048519;28;20032;-43
2022/08/14 02:16:54;;;;;;;4.15;3.80;;;24.10;71.70;;;;;;5046885;28;20129;-43
2022/08/14 02:19:22;;;;;;;4.63;4.22;;;24.10;71.80;;;;;;5048641;28;20108;-43
2022/08/14 02:21:53;;;;;;;3.97;3.67;;;24.10;72.00;;;;;;5047096;28;20017;-43
2022/08/14 02:24:22;;;;;;;4.30;3.90;;;24.10;72.10;;;;;;5047453;28;20127;-43
2022/08/14 02:26:48;;;;;;;4.40;4.00;;;24.00;72.00;;;;;;5047495;28;20045;-43
2022/08/14 02:29:17;;;;;;;4.00;3.70;;;24.00;72.20;;;;;;5047194;28;20385;-43
2022/08/14 02:31:48;;;;;;;3.90;3.60;;;24.00;72.30;;;;;;5046380;28;20794;-43
2022/08/14 02:34:18;;;;;;;4.68;4.10;;;23.90;72.30;;;;;;5036855;28;20029;-43
2022/08/14 02:36:46;;;;;;;4.38;4.07;;;23.90;72.30;;;;;;5047218;28;20259;-42
2022/08/14 02:39:13;;;;;;;4.13;3.83;;;23.90;72.40;;;;;;5047335;28;20021;-42
2022/08/14 02:41:39;;;;;;;4.07;3.78;;;23.90;72.50;;;;;;5047404;28;20432;-43
2022/08/14 02:44:08;;;;;;;4.35;3.95;;;23.90;72.60;;;;;;5044801;28;20025;-43
2022/08/14 02:46:33;;;;;;;4.20;3.90;;;23.80;72.70;;;;;;5046858;28;20784;-43
2022/08/14 02:49:00;;;;;;;4.53;4.13;;;23.80;72.70;;;;;;5046899;28;20482;-43
2022/08/14 02:51:26;;;;;;;4.35;3.95;;;23.80;72.90;;;;;;5047375;28;20033;-43
2022/08/14 02:53:53;;;;;;;4.30;3.90;;;23.80;73.00;;;;;;5045876;28;20059;-43
2022/08/14 02:56:19;;;;;;;4.15;3.85;;;23.70;73.30;;;;;;5047949;28;20033;-43
2022/08/14 02:58:48;;;;;;;6.22;4.65;;;23.70;73.30;;;;;;5046170;28;20028;-43
2022/08/14 03:01:16;;;;;;;5.13;4.63;;;23.70;73.80;;;;;;5047545;28;20040;-43
2022/08/14 03:03:42;;;;;;;4.65;4.18;;;23.60;73.80;;;;;;5046396;28;20049;-42
2022/08/14 03:06:09;;;;;;;4.75;4.35;;;23.60;73.90;;;;;;5046187;28;20458;-43
2022/08/14 03:08:37;;;;;;;4.63;4.20;;;23.50;73.90;;;;;;5047560;28;20029;-42
2022/08/14 03:11:07;;;;;;;4.68;4.28;;;23.50;74.00;;;;;;5047284;28;20052;-43
2022/08/14 03:13:34;;;;;;;4.22;3.83;;;23.50;74.10;;;;;;5045902;28;20469;-43
2022/08/14 03:16:04;;;;;;;4.70;4.30;;;23.40;74.10;;;;;;5046649;28;20812;-43
2022/08/14 03:18:30;;;;;;;4.40;3.97;;;23.40;74.20;;;;;;5046762;28;20450;-43
2022/08/14 03:20:56;;;;;;;4.20;3.90;;;23.40;74.30;;;;;;5045517;28;20063;-43
2022/08/14 03:23:22;;;;;;;4.93;4.30;;;23.40;74.30;;;;;;5046997;28;20448;-43
2022/08/14 03:25:47;;;;;;;4.47;4.18;;;23.40;74.50;;;;;;5046457;28;20036;-44
2022/08/14 03:28:13;;;;;;;4.95;4.47;;;23.30;74.60;;;;;;5045918;28;20530;-43
2022/08/14 03:30:39;;;;;;;4.28;3.88;;;23.30;74.70;;;;;;5046233;28;20024;-43
2022/08/14 03:33:08;;;;;;;5.47;4.90;;;23.30;74.70;;;;;;5046653;28;20496;-44
2022/08/14 03:35:33;;;;;;;4.70;4.30;;;23.30;74.80;;;;;;5045769;28;20025;-43
2022/08/14 03:38:11;;;;;;;4.50;4.15;;;23.30;74.90;;;;;;5046337;28;20035;-43
2022/08/14 03:40:39;;;;;;;4.10;3.80;;;23.30;75.00;;;;;;5045862;28;20120;-43
2022/08/14 03:43:09;;;;;;;4.50;4.10;;;23.20;75.00;;;;;;5045975;28;20446;-43
2022/08/14 03:45:36;;;;;;;3.88;3.58;;;23.20;75.10;;;;;;5046245;28;20029;-43
2022/08/14 03:48:22;;;;;;;4.65;4.28;;;23.20;75.20;;;;;;5045506;28;20020;-43
2022/08/14 03:50:52;;;;;;;4.80;4.40;;;23.20;75.40;;;;;;5045743;28;20037;-43
2022/08/14 03:53:19;;;;;;;5.10;4.30;;;23.10;75.40;;;;;;5046379;28;20328;-43
2022/08/14 03:55:45;;;;;;;5.40;4.90;;;23.10;75.60;;;;;;5043824;28;20057;-43
2022/08/14 03:58:11;;;;;;;4.40;4.00;;;23.00;75.60;;;;;;5041440;28;20018;-43
2022/08/14 04:00:38;;;;;;;4.63;4.22;;;23.00;75.80;;;;;;5038586;28;20431;-43
2022/08/14 04:03:06;;;;;;;5.43;4.93;;;23.00;75.90;;;;;;5044765;28;20071;-43
2022/08/14 04:05:32;;;;;;;5.43;4.90;;;22.90;76.10;;;;;;5045659;28;20028;-42
2022/08/14 04:07:59;;;;;;;5.22;4.82;;;22.90;76.40;;;;;;5045610;28;20025;-43
2022/08/14 04:10:25;;;;;;;5.65;4.78;;;22.90;76.60;;;;;;5044650;28;20453;-41
2022/08/14 04:12:51;;;;;;;7.45;5.13;;;22.80;76.60;;;;;;5046245;28;20156;-42
2022/08/14 04:15:20;;;;;;;6.25;4.97;;;22.80;77.30;;;;;;5046108;28;20103;-43
2022/08/14 04:17:45;;;;;;;5.57;5.07;;;22.80;76.90;;;;;;5044548;28;20024;-42
2022/08/14 04:20:12;;;;;;;5.13;4.72;;;22.80;77.00;;;;;;5045915;28;20070;-43
2022/08/14 04:22:42;;;;;;;5.28;4.88;;;22.70;77.00;;;;;;5045261;28;20718;-42
2022/08/14 04:25:08;;;;;;;4.68;4.20;;;22.70;77.00;;;;;;5044508;28;20025;-43
2022/08/14 04:27:34;;;;;;;4.95;4.55;;;22.70;77.10;;;;;;5045527;28;20079;-43
2022/08/14 04:30:01;;;;;;;4.80;4.40;;;22.70;77.10;;;;;;5045190;28;20098;-43
2022/08/14 04:32:26;;;;;;;5.25;4.75;;;22.70;77.20;;;;;;5043064;28;20093;-43
2022/08/14 04:34:53;;;;;;;5.15;4.70;;;22.70;77.30;;;;;;5045634;28;20443;-43
2022/08/14 04:45:39;;;;;;;6.32;4.68;;;22.70;77.50;;;;;;5044665;28;20044;-43
2022/08/14 04:48:16;;;;;;;5.20;4.80;;;22.70;77.60;;;;;;5043674;28;20023;-42
2022/08/14 04:50:46;;;;;;;4.97;4.55;;;22.60;77.70;;;;;;5045101;28;20784;-42
2022/08/14 04:53:18;;;;;;;5.82;5.32;;;22.70;77.80;;;;;;5043824;28;20381;-43
2022/08/14 04:55:48;;;;;;;;;;;22.60;78.00;;;;;;5044790;28;20033;-43
2022/08/14 04:58:26;;;;;;;4.97;4.50;;;22.60;77.90;;;;;;5045099;28;19909;-43
2022/08/14 05:00:53;;;;;;;5.13;4.72;;;22.60;77.90;;;;;;5045016;28;20021;-44
2022/08/14 05:03:30;;;;;;;5.53;5.03;;;22.60;78.00;;;;;;5044309;28;20045;-44
2022/08/14 05:05:58;;;;;;;5.00;4.60;;;22.60;78.20;;;;;;5044360;28;20024;-43
2022/08/14 05:08:24;;;;;;;5.20;4.75;;;22.60;78.20;;;;;;5044051;28;20078;-43
2022/08/14 05:10:53;;;;;;;5.50;5.00;;;22.60;78.20;;;;;;5044474;28;20065;-43
2022/08/14 05:13:19;;;;;;;4.97;4.57;;;22.60;78.30;;;;;;5044435;28;20036;-43
2022/08/14 05:15:46;;;;;;;5.50;5.07;;;22.60;78.30;;;;;;5044512;28;20107;-43
2022/08/14 05:18:14;;;;;;;4.97;4.57;;;22.60;78.40;;;;;;5045054;28;20035;-42
2022/08/14 05:20:44;;;;;;;5.30;4.90;;;22.60;78.40;;;;;;5043699;28;20112;-43
2022/08/14 05:23:10;;;;;;;5.70;5.20;;;22.70;78.50;;;;;;5044734;28;20032;-42
2022/08/14 05:25:36;;;;;;;5.93;5.43;;;22.70;78.70;;;;;;5044196;28;20029;-42
2022/08/14 05:28:10;;;;;;;5.63;5.13;;;22.70;78.70;;;;;;5043680;28;20028;-42
2022/08/14 05:30:37;;;;;;;5.53;5.03;;;22.70;78.70;;;;;;5044735;28;20376;-43
2022/08/14 05:33:04;;;;;;;6.05;5.53;;;22.70;78.80;;;;;;5044051;28;20048;-42
2022/08/14 05:35:29;;;;;;;6.30;5.70;;;22.70;78.70;;;;;;5043625;28;20179;-43
2022/08/14 05:37:55;;;;;;;5.63;4.95;;;22.70;78.80;;;;;;5044621;28;20572;-43
2022/08/14 05:40:20;;;;;;;5.63;5.13;;;22.80;78.80;;;;;;5044931;28;20013;-43
2022/08/14 05:42:46;;;;;;;5.65;5.15;;;22.80;78.90;;;;;;5044275;28;20116;-43
2022/08/14 05:45:13;;;;;;;6.85;6.15;;;22.80;78.90;;;;;;5048492;28;20108;-43
2022/08/14 05:47:40;;;;;;;5.57;5.07;;;22.80;78.90;;;;;;5047899;28;20473;-42
2022/08/14 05:50:08;;;;;;;6.15;5.47;;;22.80;78.90;;;;;;5047640;28;20431;-42
2022/08/14 05:52:34;;;;;;;5.80;5.30;;;22.90;78.90;;;;;;5048398;28;20040;-42
2022/08/14 05:54:59;;;;;;;5.57;5.07;;;22.90;78.90;;;;;;5047559;28;20021;-42
2022/08/14 05:57:25;;;;;;;6.25;5.72;;;22.90;78.90;;;;;;5047940;28;20104;-43
2022/08/14 05:59:51;;;;;;;6.68;6.07;;;23.00;78.90;;;;;;5048122;28;20029;-43
2022/08/14 06:02:17;;;;;;;5.70;5.25;;;23.00;79.00;;;;;;5047734;28;20035;-43
2022/08/14 06:04:47;;;;;;;5.90;5.40;;;23.00;78.90;;;;;;5047691;28;20563;-43
2022/08/14 06:07:13;;;;;;;5.47;4.97;;;23.00;78.90;;;;;;5048667;28;20040;-42
2022/08/14 06:09:39;;;;;;;5.47;4.97;;;23.10;79.00;;;;;;5046629;28;20079;-43
2022/08/14 06:12:05;;;;;;;5.57;5.07;;;23.10;79.00;;;;;;5047866;28;20021;-43
2022/08/14 06:14:30;;;;;;;5.25;4.80;;;23.10;78.90;;;;;;5047908;28;20082;-43
2022/08/14 06:16:56;;;;;;;6.30;5.70;;;23.20;79.10;;;;;;5047170;28;20067;-43
2022/08/14 06:19:21;;;;;;;5.90;5.40;;;23.20;79.10;;;;;;5047941;28;20044;-43
2022/08/14 06:21:47;;;;;;;5.72;5.22;;;23.20;79.10;;;;;;5047657;28;20014;-43
2022/08/14 06:24:12;;;;;;;5.85;5.35;;;23.20;79.00;;;;;;5047831;28;20451;-43
2022/08/14 06:26:38;;;;;;;5.50;5.10;;;23.20;79.00;;;;;;5048357;28;20053;-43
2022/08/14 06:29:03;;;;;;;6.20;5.60;;;23.30;79.10;;;;;;5047899;28;20051;-43
2022/08/14 06:31:29;;;;;;;5.53;5.10;;;23.30;79.10;;;;;;5047634;28;20013;-43
2022/08/14 06:33:55;;;;;;;5.97;5.47;;;23.30;79.10;;;;;;5047532;28;20033;-43
2022/08/14 06:36:21;;;;;;;5.78;5.28;;;23.30;79.10;;;;;;5048425;28;20087;-43
2022/08/14 06:38:46;;;;;;;5.70;5.15;;;23.40;79.20;;;;;;5047460;28;20029;-43
2022/08/14 06:41:12;;;;;;;6.13;5.50;;;23.40;79.20;;;;;;5047916;28;20055;-43
2022/08/14 06:43:37;;;;;;;5.82;5.20;;;23.40;79.20;;;;;;5047943;28;20521;-43
2022/08/14 06:46:03;;;;;;;5.85;5.35;;;23.50;79.20;;;;;;5046809;28;20025;-43
2022/08/14 06:48:28;;;;;;;5.28;4.88;;;23.50;79.20;;;;;;5047625;28;20380;-43
2022/08/14 06:50:54;;;;;;;6.10;5.50;;;23.50;79.10;;;;;;5046735;28;20048;-43
2022/08/14 06:53:21;;;;;;;5.43;4.93;;;23.50;79.20;;;;;;5048609;28;20516;-42
2022/08/14 06:55:48;;;;;;;5.13;4.72;;;23.60;79.10;;;;;;5045798;28;20426;-43
2022/08/14 06:58:15;;;;;;;6.47;4.85;;;23.60;79.10;;;;;;5046940;28;20473;-42
2022/08/14 07:05:44;;;;;;;5.75;5.25;;;23.70;79.20;;;;;;5047002;28;20182;-42
2022/08/14 07:06:13;;;;;;;6.30;5.70;;;23.80;79.10;;;;;;5047114;28;20040;-43
2022/08/14 07:08:39;;;;;;;5.32;4.93;;;23.80;79.40;;;;;;5045385;28;20029;-43
2022/08/14 07:11:04;;;;;;;5.85;5.35;;;23.80;79.00;;;;;;5045319;28;20082;-43
2022/08/14 07:13:30;;;;;;;5.95;5.43;;;23.80;79.00;;;;;;5045744;28;20082;-42
2022/08/14 07:15:57;;;;;;;6.38;5.88;;;23.90;79.00;;;;;;5044098;28;20017;-43
2022/08/14 07:18:31;;;;;;;6.05;5.55;;;23.90;79.00;;;;;;5045762;28;20507;-43
2022/08/14 07:20:59;;;;;;;6.22;5.60;;;24.00;79.00;;;;;;5044946;28;20017;-43
2022/08/14 07:23:25;;;;;;;5.97;5.40;;;24.00;78.90;;;;;;5042708;28;20369;-42
2022/08/14 07:25:53;;;;;;;6.45;5.55;;;24.00;78.90;;;;;;5045671;28;20108;-43
2022/08/14 07:28:23;;;;;;;6.22;5.72;;;24.10;78.90;;;;;;5044775;28;20052;-43
2022/08/14 07:30:51;;;;;;;5.97;5.43;;;24.10;79.00;;;;;;5045618;28;20481;-42
2022/08/14 07:33:17;;;;;;;5.95;5.45;;;24.20;79.00;;;;;;5044996;28;20027;-42
2022/08/14 07:35:43;;;;;;;7.20;6.55;;;24.20;78.90;;;;;;5045072;28;20422;-42
2022/08/14 07:38:16;;;;;;;6.40;5.90;;;24.30;78.90;;;;;;5045026;28;20025;-42
2022/08/14 07:40:42;;;;;;;6.70;6.10;;;24.30;78.90;;;;;;5024230;28;20480;-43
2022/08/14 07:43:08;;;;;;;6.00;5.50;;;24.30;78.80;;;;;;5039669;28;20031;-43
2022/08/14 07:45:33;;;;;;;6.38;5.78;;;24.40;78.80;;;;;;5045905;28;20124;-42
2022/08/14 07:47:59;;;;;;;5.10;4.65;;;24.40;78.70;;;;;;5045037;28;20407;-43
2022/08/14 07:50:24;;;;;;;6.20;5.10;;;24.50;78.80;;;;;;5045972;28;20148;-43
2022/08/14 07:52:50;;;;;;;7.05;5.65;;;24.50;78.70;;;;;;5042959;28;20020;-43
2022/08/14 07:55:17;;;;;;;5.88;5.32;;;24.50;78.60;;;;;;5044990;28;20048;-44
2022/08/14 07:57:44;;;;;;;5.93;5.32;;;24.60;78.70;;;;;;5044508;28;20408;-43
2022/08/14 08:00:17;;;;;;;6.40;5.82;;;24.60;78.60;;;;;;5045612;28;20123;-43
2022/08/14 08:02:45;;;;;;;5.43;5.03;;;24.70;78.70;;;;;;5043508;28;20044;-43
2022/08/14 08:05:12;;;;;;;5.72;5.25;;;24.70;78.60;;;;;;5045055;28;20503;-43
2022/08/14 08:07:39;;;;;;;6.13;5.50;;;24.80;78.60;;;;;;5044567;28;20025;-43
2022/08/14 08:12:55;;;;;;;6.22;5.72;;;24.90;78.50;;;;;;5044116;28;20044;-43
2022/08/14 08:15:22;;;;;;;6.05;5.00;;;24.90;78.50;;;;;;5044527;28;20021;-42
2022/08/14 08:17:48;;;;;;;5.70;5.20;;;25.00;78.40;;;;;;5043889;28;20021;-42
2022/08/14 08:20:16;;;;;;;5.55;5.05;;;25.00;78.30;;;;;;5044990;28;20025;-42
2022/08/14 08:22:42;;;;;;;5.35;4.95;;;25.10;78.20;;;;;;5043680;28;20104;-42
2022/08/14 08:25:08;;;;;;;5.28;4.78;;;25.10;78.10;;;;;;5044562;28;20155;-42
2022/08/14 08:27:34;;;;;;;5.30;4.90;;;25.20;78.10;;;;;;5044225;28;20196;-42
2022/08/14 08:30:08;;;;;;;5.15;4.75;;;25.20;78.00;;;;;;5044334;28;20051;-42
2022/08/14 08:32:39;;;;;;;5.85;5.15;;;25.30;77.90;;;;;;5024728;28;20029;-42
2022/08/14 08:35:08;;;;;;;6.10;5.50;;;25.40;77.90;;;;;;5039923;28;20496;-43
2022/08/14 08:37:34;;;;;;;4.95;4.55;;;25.40;77.70;;;;;;5043292;28;20500;-43
2022/08/14 08:39:59;;;;;;;5.20;4.80;;;25.40;77.60;;;;;;5043862;28;20106;-43
2022/08/14 08:42:25;;;;;;;5.75;5.25;;;25.50;77.60;;;;;;5043564;28;20028;-43
2022/08/14 08:44:57;;;;;;;5.63;5.20;;;25.60;77.50;;;;;;5044140;28;20476;-43
2022/08/14 08:47:22;;;;;;;5.53;4.90;;;25.60;77.40;;;;;;5044248;28;20855;-43
2022/08/14 08:49:48;;;;;;;5.88;5.28;;;25.70;77.30;;;;;;5043036;28;20031;-43
2022/08/14 08:52:13;;;;;;;4.35;4.05;;;25.70;77.20;;;;;;5043677;28;20020;-43
2022/08/14 08:54:39;;;;;;;5.10;4.70;;;25.80;77.10;;;;;;5043699;28;20355;-44
2022/08/14 08:57:11;;;;;;;5.15;4.65;;;25.90;77.10;;;;;;5043884;28;20029;-43
2022/08/14 08:59:37;;;;;;;5.55;5.05;;;25.90;77.00;;;;;;5043374;28;20136;-42
2022/08/14 09:02:07;;;;;;;5.07;4.68;;;25.90;76.90;;;;;;5043683;28;20567;-42
2022/08/14 09:04:40;;;;;;;4.63;4.30;;;26.10;76.90;;;;;;5043258;28;20063;-42
2022/08/14 09:07:06;;;;;;;5.10;4.70;;;26.10;76.70;;;;;;5044130;28;20048;-43
2022/08/14 09:09:32;;;;;;;4.90;4.50;;;26.10;76.50;;;;;;5043590;28;20037;-43
2022/08/14 09:11:59;;;;;;;4.97;4.53;;;26.20;76.50;;;;;;5042376;28;20460;-43
2022/08/14 09:14:29;;;;;;;4.65;4.18;;;26.30;76.40;;;;;;5043700;28;20407;-43
2022/08/14 09:16:57;;;;;;;5.60;5.10;;;26.30;76.30;;;;;;5043575;28;20357;-44
2022/08/14 09:19:22;;;;;;;5.15;4.75;;;26.40;76.40;;;;;;5043172;28;20025;-43
2022/08/14 09:21:48;;;;;;;5.15;4.75;;;26.40;76.10;;;;;;5041979;28;20033;-44
2022/08/14 09:24:14;;;;;;;5.20;4.80;;;26.50;76.00;;;;;;5044246;28;20098;-43
2022/08/14 09:26:41;;;;;;;4.70;4.30;;;26.60;75.90;;;;;;5042360;28;20079;-43
2022/08/14 09:29:08;;;;;;;4.80;4.40;;;26.60;75.70;;;;;;5043882;28;20481;-43
2022/08/14 09:31:38;;;;;;;4.60;4.20;;;26.70;75.70;;;;;;5044685;28;20148;-43
2022/08/14 09:34:25;;;;;;;6.82;4.35;;;26.70;75.50;;;;;;5043719;28;20515;-42
2022/08/14 09:37:06;;;;;;;4.18;3.88;;;26.80;75.40;;;;;;5044066;28;20029;-43
2022/08/14 09:40:09;;;;;;;4.40;4.10;;;26.80;75.30;;;;;;5044160;28;20025;-43
2022/08/14 09:42:57;;;;;;;4.38;3.80;;;27.00;75.20;;;;;;5042058;28;20029;-43
2022/08/14 09:45:41;;;;;;;4.55;4.15;;;27.00;75.00;;;;;;5044545;28;20041;-43
2022/08/14 09:48:19;;;;;;;4.15;3.85;;;27.10;74.90;;;;;;5042504;28;20017;-42
2022/08/14 09:50:52;;;;;;;4.60;4.20;;;27.10;74.70;;;;;;5043382;28;20045;-42
2022/08/14 09:53:41;;;;;;;4.53;4.00;;;27.10;74.60;;;;;;5044224;28;20024;-43
2022/08/14 09:56:07;;;;;;;7.53;4.07;;;27.20;74.50;;;;;;5043770;28;20025;-42
2022/08/14 09:58:42;;;;;;;4.32;3.92;;;27.30;74.30;;;;;;5044140;28;20025;-43
2022/08/14 10:01:13;;;;;;;4.20;3.90;;;27.30;74.20;;;;;;5043432;28;20025;-43
2022/08/14 10:03:52;;;;;;;4.40;4.00;;;27.40;74.10;;;;;;5043287;28;20411;-43
2022/08/14 10:06:24;;;;;;;4.60;4.20;;;27.40;73.90;;;;;;5044295;28;20033;-43
2022/08/14 10:09:01;;;;;;;;;;;27.50;73.70;;;;;;5043671;28;20017;-43
2022/08/14 10:11:34;;;;;;;4.18;3.88;;;27.60;73.40;;;;;;5043809;28;19908;-43
2022/08/14 10:14:15;;;;;;;4.93;4.50;;;27.60;73.00;;;;;;5042930;28;20021;-43
2022/08/14 10:16:46;;;;;;;4.65;4.00;;;27.70;72.70;;;;;;5043677;28;20516;-43
2022/08/14 10:19:15;;;;;;;3.95;3.70;;;27.70;72.50;;;;;;5043927;28;20025;-42
2022/08/14 10:21:43;;;;;;;3.75;3.45;;;27.80;72.50;;;;;;5043897;28;20432;-44
2022/08/14 10:24:09;;;;;;;4.22;3.92;;;27.80;72.40;;;;;;5043854;28;20029;-43
2022/08/14 10:26:36;;;;;;;6.13;3.55;;;27.80;72.20;;;;;;5043780;28;20080;-43
2022/08/14 10:29:06;;;;;;;3.80;3.50;;;27.90;72.10;;;;;;5044159;28;20029;-43
2022/08/14 10:31:33;;;;;;;3.92;3.50;;;28.00;71.90;;;;;;5047201;28;20452;-44
2022/08/14 10:34:03;;;;;;;4.07;3.78;;;28.00;71.90;;;;;;5047497;28;20738;-43
2022/08/14 10:36:31;;;;;;;4.05;3.70;;;28.10;71.70;;;;;;5046703;28;20029;-43
2022/08/14 10:38:59;;;;;;;3.67;3.40;;;28.20;71.60;;;;;;5047122;28;20518;-43
2022/08/14 10:41:38;;;;;;;4.50;3.80;;;28.20;71.30;;;;;;5046925;28;20029;-43
2022/08/14 10:44:10;;;;;;;4.03;3.63;;;28.20;71.10;;;;;;5046326;28;20139;-43
2022/08/14 10:46:46;;;;;;;4.03;3.72;;;28.30;70.90;;;;;;5047167;28;20028;-44
2022/08/14 10:49:30;;;;;;;4.00;3.70;;;28.30;70.80;;;;;;5047636;28;20098;-43
2022/08/14 10:52:05;;;;;;;4.32;3.70;;;28.40;70.60;;;;;;5046137;28;20408;-44
2022/08/14 10:54:33;;;;;;;4.22;3.88;;;28.50;70.60;;;;;;5046798;28;20025;-44
2022/08/14 10:57:12;;;;;;;4.00;3.63;;;28.50;70.30;;;;;;5046961;28;20063;-44
2022/08/14 10:59:46;;;;;;;3.60;3.40;;;28.50;70.00;;;;;;5047507;28;20061;-44
2022/08/14 11:02:38;;;;;;;3.70;3.40;;;28.50;69.90;;;;;;5047424;28;20037;-44
2022/08/14 11:05:07;;;;;;;3.53;3.33;;;28.60;70.00;;;;;;5045858;28;20088;-44
2022/08/14 11:07:35;;;;;;;3.97;3.67;;;28.60;70.00;;;;;;5047352;28;20068;-44
2022/08/14 11:10:13;;;;;;;4.15;3.85;;;28.60;69.90;;;;;;5046342;28;20045;-44
2022/08/14 11:12:47;;;;;;;4.55;4.15;;;28.70;69.80;;;;;;5046072;28;20033;-44
2022/08/14 11:15:21;;;;;;;4.07;3.67;;;28.70;69.30;;;;;;5047215;28;20028;-44
2022/08/14 11:17:49;;;;;;;4.18;3.83;;;28.80;69.20;;;;;;5046145;28;20438;-44
2022/08/14 11:20:20;;;;;;;4.28;3.97;;;28.80;69.20;;;;;;5046114;28;20020;-44
2022/08/14 11:22:46;;;;;;;3.90;3.60;;;28.80;69.00;;;;;;5046298;28;20025;-44
2022/08/14 11:25:14;;;;;;;3.33;3.13;;;28.90;69.00;;;;;;5045923;28;20025;-44
2022/08/14 11:27:42;;;;;;;4.18;3.88;;;28.90;68.80;;;;;;5045029;28;20025;-44
2022/08/14 11:30:11;;;;;;;4.10;3.80;;;28.90;68.60;;;;;;5044763;28;20082;-44
2022/08/14 11:32:41;;;;;;;3.90;3.60;;;29.00;68.60;;;;;;5045461;28;20052;-44
2022/08/14 11:35:12;;;;;;;4.13;3.80;;;29.10;68.60;;;;;;5046560;28;20025;-43
2022/08/14 11:37:54;;;;;;;4.43;4.07;;;29.10;68.60;;;;;;5046466;28;20117;-44
2022/08/14 11:40:22;;;;;;;;;;;29.10;68.40;;;;;;5045532;28;20111;-43
2022/08/14 11:42:49;;;;;;;3.90;3.55;;;29.20;68.30;;;;;;5046097;28;19991;-44
2022/08/14 11:45:16;;;;;;;3.42;3.10;;;29.20;68.00;;;;;;5046217;28;20468;-44
2022/08/14 11:47:42;;;;;;;4.82;3.05;;;29.20;68.00;;;;;;5045158;28;20575;-44
2022/08/14 11:50:32;;;;;;;3.58;3.35;;;29.20;67.80;;;;;;5045826;28;20037;-44
2022/08/14 11:53:00;;;;;;;6.38;3.35;;;29.30;67.80;;;;;;5030464;28;20033;-44
2022/08/14 11:55:32;;;;;;;3.78;3.47;;;29.30;67.40;;;;;;5045082;28;20087;-43
2022/08/14 11:58:07;;;;;;;3.38;3.17;;;29.30;67.30;;;;;;5046078;28;20029;-43
2022/08/14 12:00:33;;;;;;;3.53;3.22;;;29.30;67.30;;;;;;5044986;28;20021;-44
2022/08/14 12:03:00;;;;;;;3.20;3.00;;;29.40;67.20;;;;;;5045219;28;20082;-44
2022/08/14 12:05:38;;;;;;;3.90;3.60;;;29.50;67.00;;;;;;5045690;28;20360;-43
2022/08/14 12:08:06;;;;;;;4.72;3.70;;;29.70;66.70;;;;;;5042879;28;20079;-43
2022/08/14 12:10:33;;;;;;;3.55;3.35;;;29.80;66.20;;;;;;5045512;28;20117;-43
2022/08/14 12:13:10;;;;;;;3.40;3.10;;;29.80;65.90;;;;;;5045158;28;20021;-43
2022/08/14 12:15:36;;;;;;;3.70;3.40;;;29.90;65.90;;;;;;5044575;28;20067;-43
2022/08/14 12:18:02;;;;;;;3.38;3.17;;;29.80;65.50;;;;;;5045399;28;20443;-43
2022/08/14 12:20:35;;;;;;;3.50;3.20;;;29.90;65.60;;;;;;5045855;28;20128;-42
2022/08/14 12:23:03;;;;;;;3.10;2.90;;;29.90;65.40;;;;;;5044660;28;20098;-43
2022/08/14 12:25:28;;;;;;;3.38;3.10;;;29.90;65.20;;;;;;5045931;28;20080;-43
2022/08/14 12:27:56;;;;;;;3.20;3.00;;;30.00;65.20;;;;;;5045626;28;20033;-43
2022/08/14 12:30:41;;;;;;;4.50;3.20;;;30.00;65.10;;;;;;5044304;28;20091;-44
2022/08/14 12:33:29;;;;;;;3.40;3.10;;;30.00;65.20;;;;;;5045209;28;20098;-43
2022/08/14 12:35:57;;;;;;;3.00;2.80;;;30.00;65.20;;;;;;5024995;28;20519;-43
2022/08/14 12:38:40;;;;;;;3.53;3.30;;;30.10;65.00;;;;;;5042370;28;20029;-43
2022/08/14 12:41:14;;;;;;;3.45;3.25;;;30.10;64.00;;;;;;5045059;28;20488;-43
2022/08/14 12:44:00;;;;;;;3.10;2.90;;;30.20;64.20;;;;;;5043722;28;20097;-43
2022/08/14 12:46:28;;;;;;;3.08;2.88;;;30.30;64.10;;;;;;5045250;28;20040;-43
2022/08/14 12:48:54;;;;;;;2.97;2.78;;;30.30;64.10;;;;;;5044379;28;20021;-43
2022/08/14 12:51:24;;;;;;;2.67;2.47;;;30.30;64.00;;;;;;5044174;28;20041;-44
2022/08/14 12:53:51;;;;;;;3.10;2.80;;;30.30;64.10;;;;;;5043723;28;20108;-43
2022/08/14 12:56:18;;;;;;;3.33;3.03;;;30.40;64.10;;;;;;5045368;28;20025;-44
2022/08/14 12:58:57;;;;;;;3.08;2.88;;;30.40;63.80;;;;;;5043788;28;20021;-43
2022/08/14 13:01:32;;;;;;;3.42;3.08;;;30.30;63.80;;;;;;5044993;28;20028;-43
2022/08/14 13:04:09;;;;;;;2.88;2.67;;;30.30;63.80;;;;;;5043200;28;20064;-44
2022/08/14 13:06:36;;;;;;;3.17;2.97;;;30.20;63.70;;;;;;5045071;28;20040;-44
2022/08/14 13:09:04;;;;;;;3.10;2.90;;;30.20;64.30;;;;;;5043938;28;20514;-44
2022/08/14 13:11:48;;;;;;;3.17;2.97;;;30.20;63.70;;;;;;5044052;28;20314;-44
2022/08/14 13:14:17;;;;;;;3.33;3.13;;;30.30;63.60;;;;;;5044969;28;20112;-44